sensor_id;sensor_type;location;lat;lon;timestamp;P1;durP1;ratioP1;P2;durP2;ratioP2
23222;SDS011;11780;13.904;100.620;2023-04-03T00:00:20;26.27;;;23.47;;
23222;SDS011;11780;13.904;100.620;2023-04-03T00:02:51;24.23;;;21.75;;
23222;SDS011;11780;13.904;100.620;2023-04-03T00:05:21;24.88;;;22.27;;
23222;SDS011;11780;13.904;100.620;2023-04-03T00:07:52;24.95;;;22.42;;
23222;SDS011;11780;13.904;100.620;2023-04-03T00:10:22;25.58;;;23.00;;
23222;SDS011;11780;13.904;100.620;2023-04-03T00:12:53;25.50;;;23.00;;
23222;SDS011;11780;13.904;100.620;2023-04-03T00:15:23;25.33;;;22.67;;
23222;SDS011;11780;13.904;100.620;2023-04-03T00:20:24;25.70;;;23.15;;
23222;SDS011;11780;13.904;100.620;2023-04-03T00:22:55;25.55;;;23.05;;
23222;SDS011;11780;13.904;100.620;2023-04-03T00:25:25;25.52;;;22.20;;
23222;SDS011;11780;13.904;100.620;2023-04-03T00:27:56;27.57;;;24.70;;
23222;SDS011;11780;13.904;100.620;2023-04-03T00:30:26;24.83;;;22.43;;
23222;SDS011;11780;13.904;100.620;2023-04-03T00:32:57;25.97;;;23.13;;
23222;SDS011;11780;13.904;100.620;2023-04-03T00:35:27;26.23;;;23.30;;
23222;SDS011;11780;13.904;100.620;2023-04-03T00:37:58;26.50;;;23.70;;
23222;SDS011;11780;13.904;100.620;2023-04-03T00:40:32;25.73;;;22.97;;
23222;SDS011;11780;13.904;100.620;2023-04-03T00:43:13;26.75;;;23.88;;
23222;SDS011;11780;13.904;100.620;2023-04-03T00:45:48;24.15;;;21.65;;
23222;SDS011;11780;13.904;100.620;2023-04-03T00:48:21;26.27;;;23.42;;
23222;SDS011;11780;13.904;100.620;2023-04-03T00:50:56;26.67;;;24.10;;
23222;SDS011;11780;13.904;100.620;2023-04-03T00:53:31;26.30;;;23.40;;
23222;SDS011;11780;13.904;100.620;2023-04-03T00:56:07;27.60;;;24.70;;
23222;SDS011;11780;13.904;100.620;2023-04-03T00:58:42;28.48;;;25.40;;
23222;SDS011;11780;13.904;100.620;2023-04-03T01:01:20;28.13;;;25.30;;
23222;SDS011;11780;13.904;100.620;2023-04-03T01:03:53;27.60;;;24.83;;
23222;SDS011;11780;13.904;100.620;2023-04-03T01:06:26;25.88;;;23.23;;
23222;SDS011;11780;13.904;100.620;2023-04-03T01:09:05;27.33;;;24.42;;
23222;SDS011;11780;13.904;100.620;2023-04-03T01:11:36;27.40;;;24.83;;
23222;SDS011;11780;13.904;100.620;2023-04-03T01:14:06;27.90;;;25.05;;
23222;SDS011;11780;13.904;100.620;2023-04-03T01:16:36;29.60;;;26.65;;
23222;SDS011;11780;13.904;100.620;2023-04-03T01:19:07;28.77;;;26.00;;
23222;SDS011;11780;13.904;100.620;2023-04-03T01:24:32;29.65;;;26.40;;
23222;SDS011;11780;13.904;100.620;2023-04-03T01:27:07;31.23;;;28.13;;
23222;SDS011;11780;13.904;100.620;2023-04-03T01:29:40;31.50;;;28.40;;
23222;SDS011;11780;13.904;100.620;2023-04-03T01:32:14;32.60;;;29.25;;
23222;SDS011;11780;13.904;100.620;2023-04-03T01:34:44;33.03;;;29.70;;
23222;SDS011;11780;13.904;100.620;2023-04-03T01:37:15;32.78;;;29.38;;
23222;SDS011;11780;13.904;100.620;2023-04-03T01:39:45;34.83;;;31.52;;
23222;SDS011;11780;13.904;100.620;2023-04-03T01:42:15;31.50;;;28.30;;
23222;SDS011;11780;13.904;100.620;2023-04-03T01:44:46;36.40;;;33.00;;
23222;SDS011;11780;13.904;100.620;2023-04-03T01:47:16;35.67;;;31.87;;
23222;SDS011;11780;13.904;100.620;2023-04-03T01:49:47;35.53;;;31.97;;
23222;SDS011;11780;13.904;100.620;2023-04-03T01:52:17;37.38;;;33.88;;
23222;SDS011;11780;13.904;100.620;2023-04-03T01:54:47;34.03;;;30.58;;
23222;SDS011;11780;13.904;100.620;2023-04-03T01:57:18;34.75;;;31.13;;
23222;SDS011;11780;13.904;100.620;2023-04-03T01:59:48;39.20;;;35.33;;
23222;SDS011;11780;13.904;100.620;2023-04-03T02:02:18;36.85;;;33.33;;
23222;SDS011;11780;13.904;100.620;2023-04-03T02:04:51;37.83;;;34.13;;
23222;SDS011;11780;13.904;100.620;2023-04-03T02:07:21;36.27;;;32.57;;
23222;SDS011;11780;13.904;100.620;2023-04-03T02:09:51;37.85;;;34.05;;
23222;SDS011;11780;13.904;100.620;2023-04-03T02:12:22;36.45;;;33.10;;
23222;SDS011;11780;13.904;100.620;2023-04-03T02:14:52;38.45;;;34.47;;
23222;SDS011;11780;13.904;100.620;2023-04-03T02:17:22;35.90;;;32.33;;
23222;SDS011;11780;13.904;100.620;2023-04-03T02:19:54;38.10;;;34.38;;
23222;SDS011;11780;13.904;100.620;2023-04-03T02:22:24;38.80;;;35.10;;
23222;SDS011;11780;13.904;100.620;2023-04-03T02:24:54;42.28;;;38.00;;
23222;SDS011;11780;13.904;100.620;2023-04-03T02:27:25;40.97;;;36.97;;
23222;SDS011;11780;13.904;100.620;2023-04-03T02:29:55;39.30;;;35.25;;
23222;SDS011;11780;13.904;100.620;2023-04-03T02:32:26;40.40;;;36.40;;
23222;SDS011;11780;13.904;100.620;2023-04-03T02:34:56;39.67;;;35.47;;
23222;SDS011;11780;13.904;100.620;2023-04-03T02:37:27;40.15;;;36.08;;
23222;SDS011;11780;13.904;100.620;2023-04-03T02:39:58;37.30;;;33.72;;
23222;SDS011;11780;13.904;100.620;2023-04-03T02:42:28;35.95;;;32.40;;
23222;SDS011;11780;13.904;100.620;2023-04-03T02:44:59;34.75;;;31.38;;
23222;SDS011;11780;13.904;100.620;2023-04-03T02:47:32;37.38;;;33.85;;
23222;SDS011;11780;13.904;100.620;2023-04-03T02:50:03;36.88;;;33.20;;
23222;SDS011;11780;13.904;100.620;2023-04-03T02:52:33;36.33;;;32.63;;
23222;SDS011;11780;13.904;100.620;2023-04-03T02:55:04;38.22;;;34.53;;
23222;SDS011;11780;13.904;100.620;2023-04-03T02:57:35;38.63;;;34.67;;
23222;SDS011;11780;13.904;100.620;2023-04-03T03:00:05;37.08;;;33.25;;
23222;SDS011;11780;13.904;100.620;2023-04-03T03:02:36;37.40;;;33.85;;
23222;SDS011;11780;13.904;100.620;2023-04-03T03:05:06;35.92;;;32.53;;
23222;SDS011;11780;13.904;100.620;2023-04-03T03:07:38;36.47;;;32.88;;
23222;SDS011;11780;13.904;100.620;2023-04-03T03:10:08;37.10;;;33.27;;
23222;SDS011;11780;13.904;100.620;2023-04-03T03:12:39;38.20;;;34.13;;
23222;SDS011;11780;13.904;100.620;2023-04-03T03:15:10;34.67;;;31.38;;
23222;SDS011;11780;13.904;100.620;2023-04-03T03:17:41;37.17;;;33.35;;
23222;SDS011;11780;13.904;100.620;2023-04-03T03:20:12;37.63;;;33.63;;
23222;SDS011;11780;13.904;100.620;2023-04-03T03:22:44;37.17;;;33.45;;
23222;SDS011;11780;13.904;100.620;2023-04-03T03:25:14;33.88;;;30.27;;
23222;SDS011;11780;13.904;100.620;2023-04-03T03:27:45;37.13;;;33.30;;
23222;SDS011;11780;13.904;100.620;2023-04-03T03:30:15;34.20;;;30.65;;
23222;SDS011;11780;13.904;100.620;2023-04-03T03:32:46;36.63;;;32.92;;
23222;SDS011;11780;13.904;100.620;2023-04-03T03:35:17;37.03;;;33.07;;
23222;SDS011;11780;13.904;100.620;2023-04-03T03:37:47;37.97;;;34.22;;
23222;SDS011;11780;13.904;100.620;2023-04-03T03:40:19;36.28;;;32.63;;
23222;SDS011;11780;13.904;100.620;2023-04-03T03:42:49;36.45;;;32.65;;
23222;SDS011;11780;13.904;100.620;2023-04-03T03:45:20;34.15;;;30.85;;
23222;SDS011;11780;13.904;100.620;2023-04-03T03:47:50;37.30;;;33.38;;
23222;SDS011;11780;13.904;100.620;2023-04-03T03:50:20;35.80;;;32.33;;
23222;SDS011;11780;13.904;100.620;2023-04-03T03:52:51;37.70;;;33.73;;
23222;SDS011;11780;13.904;100.620;2023-04-03T03:55:21;35.13;;;31.63;;
23222;SDS011;11780;13.904;100.620;2023-04-03T03:57:54;33.22;;;29.73;;
23222;SDS011;11780;13.904;100.620;2023-04-03T04:00:26;36.30;;;32.70;;
23222;SDS011;11780;13.904;100.620;2023-04-03T04:02:57;37.28;;;33.67;;
23222;SDS011;11780;13.904;100.620;2023-04-03T04:05:30;34.30;;;31.02;;
23222;SDS011;11780;13.904;100.620;2023-04-03T04:08:02;37.08;;;32.92;;
23222;SDS011;11780;13.904;100.620;2023-04-03T04:10:33;37.78;;;33.83;;
23222;SDS011;11780;13.904;100.620;2023-04-03T04:13:06;36.67;;;32.97;;
23222;SDS011;11780;13.904;100.620;2023-04-03T04:15:36;35.03;;;31.53;;
23222;SDS011;11780;13.904;100.620;2023-04-03T04:18:07;35.47;;;31.83;;
23222;SDS011;11780;13.904;100.620;2023-04-03T04:20:40;37.85;;;33.97;;
23222;SDS011;11780;13.904;100.620;2023-04-03T04:23:10;35.60;;;32.00;;
23222;SDS011;11780;13.904;100.620;2023-04-03T04:25:40;36.88;;;33.17;;
23222;SDS011;11780;13.904;100.620;2023-04-03T04:28:11;36.83;;;33.13;;
23222;SDS011;11780;13.904;100.620;2023-04-03T04:30:42;36.40;;;32.72;;
23222;SDS011;11780;13.904;100.620;2023-04-03T04:33:14;35.80;;;32.20;;
23222;SDS011;11780;13.904;100.620;2023-04-03T04:35:46;37.33;;;33.55;;
23222;SDS011;11780;13.904;100.620;2023-04-03T04:38:20;34.90;;;31.35;;
23222;SDS011;11780;13.904;100.620;2023-04-03T04:40:52;35.80;;;32.17;;
23222;SDS011;11780;13.904;100.620;2023-04-03T04:43:23;34.88;;;31.30;;
23222;SDS011;11780;13.904;100.620;2023-04-03T04:46:07;35.80;;;31.75;;
23222;SDS011;11780;13.904;100.620;2023-04-03T04:48:48;36.50;;;32.60;;
23222;SDS011;11780;13.904;100.620;2023-04-03T04:51:20;34.90;;;31.58;;
23222;SDS011;11780;13.904;100.620;2023-04-03T04:53:51;34.90;;;31.38;;
23222;SDS011;11780;13.904;100.620;2023-04-03T04:56:23;34.45;;;31.15;;
23222;SDS011;11780;13.904;100.620;2023-04-03T04:58:56;34.92;;;31.42;;
23222;SDS011;11780;13.904;100.620;2023-04-03T05:01:26;33.20;;;29.90;;
23222;SDS011;11780;13.904;100.620;2023-04-03T05:04:03;33.88;;;30.58;;
23222;SDS011;11780;13.904;100.620;2023-04-03T05:06:34;33.22;;;29.75;;
23222;SDS011;11780;13.904;100.620;2023-04-03T05:09:09;35.25;;;31.75;;
23222;SDS011;11780;13.904;100.620;2023-04-03T05:11:42;33.15;;;29.92;;
23222;SDS011;11780;13.904;100.620;2023-04-03T05:14:14;33.60;;;30.20;;
23222;SDS011;11780;13.904;100.620;2023-04-03T05:16:45;32.72;;;29.38;;
23222;SDS011;11780;13.904;100.620;2023-04-03T05:19:19;33.50;;;30.02;;
23222;SDS011;11780;13.904;100.620;2023-04-03T05:21:50;33.40;;;29.95;;
23222;SDS011;11780;13.904;100.620;2023-04-03T05:26:51;33.65;;;30.27;;
23222;SDS011;11780;13.904;100.620;2023-04-03T05:29:22;34.20;;;30.75;;
23222;SDS011;11780;13.904;100.620;2023-04-03T05:31:53;35.45;;;31.70;;
23222;SDS011;11780;13.904;100.620;2023-04-03T05:34:25;35.42;;;31.83;;
23222;SDS011;11780;13.904;100.620;2023-04-03T05:36:56;35.60;;;31.90;;
23222;SDS011;11780;13.904;100.620;2023-04-03T05:39:27;33.97;;;30.50;;
23222;SDS011;11780;13.904;100.620;2023-04-03T05:41:59;34.20;;;30.73;;
23222;SDS011;11780;13.904;100.620;2023-04-03T05:44:30;33.63;;;30.20;;
23222;SDS011;11780;13.904;100.620;2023-04-03T05:47:01;33.85;;;30.52;;
23222;SDS011;11780;13.904;100.620;2023-04-03T05:49:32;32.70;;;29.50;;
23222;SDS011;11780;13.904;100.620;2023-04-03T05:52:02;34.63;;;30.90;;
23222;SDS011;11780;13.904;100.620;2023-04-03T05:54:32;32.72;;;29.58;;
23222;SDS011;11780;13.904;100.620;2023-04-03T05:57:17;32.13;;;28.73;;
23222;SDS011;11780;13.904;100.620;2023-04-03T05:59:48;34.67;;;31.00;;
23222;SDS011;11780;13.904;100.620;2023-04-03T06:02:20;32.90;;;29.63;;
23222;SDS011;11780;13.904;100.620;2023-04-03T06:04:53;31.70;;;28.60;;
23222;SDS011;11780;13.904;100.620;2023-04-03T06:07:24;33.65;;;29.55;;
23222;SDS011;11780;13.904;100.620;2023-04-03T06:09:57;32.72;;;29.38;;
23222;SDS011;11780;13.904;100.620;2023-04-03T06:12:28;31.93;;;28.53;;
23222;SDS011;11780;13.904;100.620;2023-04-03T06:14:59;32.60;;;29.08;;
23222;SDS011;11780;13.904;100.620;2023-04-03T06:17:29;31.88;;;28.67;;
23222;SDS011;11780;13.904;100.620;2023-04-03T06:20:10;36.13;;;29.90;;
23222;SDS011;11780;13.904;100.620;2023-04-03T06:22:41;33.10;;;29.77;;
23222;SDS011;11780;13.904;100.620;2023-04-03T06:25:12;33.88;;;29.85;;
23222;SDS011;11780;13.904;100.620;2023-04-03T06:27:42;34.58;;;31.02;;
23222;SDS011;11780;13.904;100.620;2023-04-03T06:30:12;35.92;;;32.22;;
23222;SDS011;11780;13.904;100.620;2023-04-03T06:32:43;36.67;;;32.88;;
23222;SDS011;11780;13.904;100.620;2023-04-03T06:35:13;36.60;;;32.80;;
23222;SDS011;11780;13.904;100.620;2023-04-03T06:37:44;37.63;;;33.92;;
23222;SDS011;11780;13.904;100.620;2023-04-03T06:40:19;36.90;;;33.00;;
23222;SDS011;11780;13.904;100.620;2023-04-03T06:42:52;37.53;;;33.75;;
23222;SDS011;11780;13.904;100.620;2023-04-03T06:45:23;37.95;;;34.17;;
23222;SDS011;11780;13.904;100.620;2023-04-03T06:47:54;38.78;;;34.90;;
23222;SDS011;11780;13.904;100.620;2023-04-03T06:50:25;39.33;;;35.33;;
23222;SDS011;11780;13.904;100.620;2023-04-03T06:52:55;38.90;;;34.90;;
23222;SDS011;11780;13.904;100.620;2023-04-03T06:55:26;42.53;;;35.90;;
23222;SDS011;11780;13.904;100.620;2023-04-03T06:57:56;38.67;;;34.85;;
23222;SDS011;11780;13.904;100.620;2023-04-03T07:00:27;39.50;;;35.58;;
23222;SDS011;11780;13.904;100.620;2023-04-03T07:02:57;40.30;;;36.10;;
23222;SDS011;11780;13.904;100.620;2023-04-03T07:05:28;40.22;;;35.92;;
23222;SDS011;11780;13.904;100.620;2023-04-03T07:07:58;39.03;;;34.92;;
23222;SDS011;11780;13.904;100.620;2023-04-03T07:10:29;40.77;;;36.50;;
23222;SDS011;11780;13.904;100.620;2023-04-03T07:12:59;40.63;;;36.65;;
23222;SDS011;11780;13.904;100.620;2023-04-03T07:15:31;40.72;;;36.67;;
23222;SDS011;11780;13.904;100.620;2023-04-03T07:18:01;41.07;;;36.87;;
23222;SDS011;11780;13.904;100.620;2023-04-03T07:20:32;41.07;;;36.60;;
23222;SDS011;11780;13.904;100.620;2023-04-03T07:23:02;41.53;;;37.35;;
23222;SDS011;11780;13.904;100.620;2023-04-03T07:25:33;42.30;;;37.83;;
23222;SDS011;11780;13.904;100.620;2023-04-03T07:28:04;42.58;;;38.25;;
23222;SDS011;11780;13.904;100.620;2023-04-03T07:30:34;40.13;;;36.00;;
23222;SDS011;11780;13.904;100.620;2023-04-03T07:33:12;44.33;;;39.67;;
23222;SDS011;11780;13.904;100.620;2023-04-03T07:35:44;42.28;;;38.25;;
23222;SDS011;11780;13.904;100.620;2023-04-03T07:38:15;44.50;;;40.13;;
23222;SDS011;11780;13.904;100.620;2023-04-03T07:40:46;41.83;;;37.28;;
23222;SDS011;11780;13.904;100.620;2023-04-03T07:43:18;43.90;;;38.78;;
23222;SDS011;11780;13.904;100.620;2023-04-03T07:45:49;43.03;;;38.67;;
23222;SDS011;11780;13.904;100.620;2023-04-03T07:48:24;42.47;;;38.17;;
23222;SDS011;11780;13.904;100.620;2023-04-03T07:50:58;43.80;;;39.17;;
23222;SDS011;11780;13.904;100.620;2023-04-03T07:53:30;40.78;;;36.78;;
23222;SDS011;11780;13.904;100.620;2023-04-03T07:58:32;43.25;;;38.78;;
23222;SDS011;11780;13.904;100.620;2023-04-03T08:08:47;43.40;;;39.10;;
23222;SDS011;11780;13.904;100.620;2023-04-03T08:11:17;43.07;;;38.13;;
23222;SDS011;11780;13.904;100.620;2023-04-03T08:13:48;44.88;;;40.35;;
23222;SDS011;11780;13.904;100.620;2023-04-03T08:16:20;44.92;;;40.28;;
23222;SDS011;11780;13.904;100.620;2023-04-03T08:18:55;45.50;;;40.67;;
23222;SDS011;11780;13.904;100.620;2023-04-03T08:21:25;45.25;;;40.55;;
23222;SDS011;11780;13.904;100.620;2023-04-03T08:23:56;44.73;;;40.43;;
23222;SDS011;11780;13.904;100.620;2023-04-03T08:26:26;45.17;;;40.78;;
23222;SDS011;11780;13.904;100.620;2023-04-03T08:28:56;45.95;;;41.17;;
23222;SDS011;11780;13.904;100.620;2023-04-03T08:31:27;46.85;;;41.90;;
23222;SDS011;11780;13.904;100.620;2023-04-03T08:33:57;46.03;;;41.33;;
23222;SDS011;11780;13.904;100.620;2023-04-03T08:36:29;44.25;;;39.95;;
23222;SDS011;11780;13.904;100.620;2023-04-03T08:39:00;46.35;;;41.53;;
23222;SDS011;11780;13.904;100.620;2023-04-03T08:41:41;48.70;;;43.83;;
23222;SDS011;11780;13.904;100.620;2023-04-03T08:44:25;47.65;;;42.50;;
23222;SDS011;11780;13.904;100.620;2023-04-03T08:47:21;45.33;;;40.92;;
23222;SDS011;11780;13.904;100.620;2023-04-03T08:49:58;46.53;;;41.80;;
23222;SDS011;11780;13.904;100.620;2023-04-03T08:52:51;47.95;;;43.45;;
23222;SDS011;11780;13.904;100.620;2023-04-03T08:55:34;47.80;;;42.67;;
23222;SDS011;11780;13.904;100.620;2023-04-03T08:58:18;48.05;;;43.03;;
23222;SDS011;11780;13.904;100.620;2023-04-03T09:00:58;44.47;;;40.13;;
23222;SDS011;11780;13.904;100.620;2023-04-03T09:03:30;47.42;;;42.53;;
23222;SDS011;11780;13.904;100.620;2023-04-03T09:17:21;44.25;;;39.75;;
23222;SDS011;11780;13.904;100.620;2023-04-03T09:22:33;43.78;;;39.38;;
23222;SDS011;11780;13.904;100.620;2023-04-03T09:25:21;45.40;;;40.60;;
23222;SDS011;11780;13.904;100.620;2023-04-03T09:28:03;43.92;;;39.60;;
23222;SDS011;11780;13.904;100.620;2023-04-03T09:30:39;44.00;;;39.80;;
23222;SDS011;11780;13.904;100.620;2023-04-03T09:33:09;43.40;;;38.95;;
23222;SDS011;11780;13.904;100.620;2023-04-03T09:35:40;43.03;;;38.60;;
23222;SDS011;11780;13.904;100.620;2023-04-03T09:38:21;42.13;;;37.97;;
23222;SDS011;11780;13.904;100.620;2023-04-03T09:41:05;42.10;;;37.83;;
23222;SDS011;11780;13.904;100.620;2023-04-03T09:43:54;42.85;;;38.67;;
23222;SDS011;11780;13.904;100.620;2023-04-03T09:46:30;41.90;;;37.60;;
23222;SDS011;11780;13.904;100.620;2023-04-03T09:49:03;42.40;;;38.10;;
23222;SDS011;11780;13.904;100.620;2023-04-03T09:51:36;43.25;;;39.08;;
23222;SDS011;11780;13.904;100.620;2023-04-03T09:54:23;41.40;;;37.08;;
23222;SDS011;11780;13.904;100.620;2023-04-03T09:57:12;42.05;;;37.92;;
23222;SDS011;11780;13.904;100.620;2023-04-03T09:59:58;40.75;;;36.47;;
23222;SDS011;11780;13.904;100.620;2023-04-03T10:02:40;41.80;;;37.55;;
23222;SDS011;11780;13.904;100.620;2023-04-03T10:11:11;40.88;;;36.92;;
23222;SDS011;11780;13.904;100.620;2023-04-03T10:13:50;40.85;;;36.60;;
23222;SDS011;11780;13.904;100.620;2023-04-03T10:16:26;39.33;;;35.40;;
23222;SDS011;11780;13.904;100.620;2023-04-03T10:41:31;39.95;;;35.95;;
23222;SDS011;11780;13.904;100.620;2023-04-03T10:53:00;39.28;;;35.13;;
23222;SDS011;11780;13.904;100.620;2023-04-03T10:55:46;37.97;;;34.30;;
23222;SDS011;11780;13.904;100.620;2023-04-03T10:58:36;39.47;;;35.60;;
23222;SDS011;11780;13.904;100.620;2023-04-03T11:01:16;36.97;;;33.47;;
23222;SDS011;11780;13.904;100.620;2023-04-03T11:03:54;36.75;;;33.13;;
23222;SDS011;11780;13.904;100.620;2023-04-03T11:06:32;38.47;;;34.63;;
23222;SDS011;11780;13.904;100.620;2023-04-03T11:12:21;36.40;;;32.80;;
23222;SDS011;11780;13.904;100.620;2023-04-03T11:14:58;37.60;;;33.10;;
23222;SDS011;11780;13.904;100.620;2023-04-03T11:17:36;37.13;;;33.25;;
23222;SDS011;11780;13.904;100.620;2023-04-03T11:22:48;34.95;;;31.33;;
23222;SDS011;11780;13.904;100.620;2023-04-03T11:25:24;34.72;;;31.33;;
23222;SDS011;11780;13.904;100.620;2023-04-03T11:36:02;33.67;;;30.15;;
23222;SDS011;11780;13.904;100.620;2023-04-03T11:39:09;34.70;;;31.13;;
23222;SDS011;11780;13.904;100.620;2023-04-03T11:41:52;35.75;;;31.88;;
23222;SDS011;11780;13.904;100.620;2023-04-03T11:44:38;34.97;;;31.10;;
23222;SDS011;11780;13.904;100.620;2023-04-03T11:47:09;32.90;;;29.40;;
23222;SDS011;11780;13.904;100.620;2023-04-03T12:03:31;33.95;;;30.45;;
23222;SDS011;11780;13.904;100.620;2023-04-03T12:08:50;33.85;;;30.23;;
23222;SDS011;11780;13.904;100.620;2023-04-03T12:11:24;32.55;;;29.35;;
23222;SDS011;11780;13.904;100.620;2023-04-03T12:16:42;34.20;;;30.73;;
23222;SDS011;11780;13.904;100.620;2023-04-03T12:22:13;31.15;;;27.85;;
23222;SDS011;11780;13.904;100.620;2023-04-03T12:24:50;32.80;;;29.40;;
23222;SDS011;11780;13.904;100.620;2023-04-03T12:27:23;32.88;;;29.63;;
23222;SDS011;11780;13.904;100.620;2023-04-03T12:30:25;32.30;;;29.10;;
23222;SDS011;11780;13.904;100.620;2023-04-03T12:33:02;32.03;;;28.77;;
23222;SDS011;11780;13.904;100.620;2023-04-03T12:41:44;32.13;;;27.70;;
23222;SDS011;11780;13.904;100.620;2023-04-03T12:45:09;30.40;;;27.10;;
23222;SDS011;11780;13.904;100.620;2023-04-03T12:47:25;29.05;;;26.05;;
23222;SDS011;11780;13.904;100.620;2023-04-03T12:50:03;30.60;;;25.75;;
23222;SDS011;11780;13.904;100.620;2023-04-03T12:52:47;26.60;;;23.75;;
23222;SDS011;11780;13.904;100.620;2023-04-03T12:55:42;27.20;;;24.35;;
23222;SDS011;11780;13.904;100.620;2023-04-03T12:58:30;30.55;;;24.55;;
23222;SDS011;11780;13.904;100.620;2023-04-03T13:03:45;26.80;;;22.67;;
23222;SDS011;11780;13.904;100.620;2023-04-03T13:06:19;26.15;;;23.27;;
23222;SDS011;11780;13.904;100.620;2023-04-03T13:08:58;26.95;;;22.02;;
23222;SDS011;11780;13.904;100.620;2023-04-03T13:11:31;29.60;;;22.30;;
23222;SDS011;11780;13.904;100.620;2023-04-03T13:14:14;25.17;;;21.80;;
23222;SDS011;11780;13.904;100.620;2023-04-03T13:16:59;27.48;;;23.38;;
23222;SDS011;11780;13.904;100.620;2023-04-03T13:19:36;25.65;;;22.73;;
23222;SDS011;11780;13.904;100.620;2023-04-03T13:22:20;28.17;;;22.67;;
23222;SDS011;11780;13.904;100.620;2023-04-03T13:24:58;27.83;;;24.10;;
23222;SDS011;11780;13.904;100.620;2023-04-03T13:27:33;24.88;;;22.20;;
23222;SDS011;11780;13.904;100.620;2023-04-03T13:30:04;25.65;;;22.17;;
23222;SDS011;11780;13.904;100.620;2023-04-03T13:32:36;25.90;;;21.60;;
23222;SDS011;11780;13.904;100.620;2023-04-03T13:35:29;25.67;;;21.98;;
23222;SDS011;11780;13.904;100.620;2023-04-03T13:38:01;26.83;;;21.05;;
23222;SDS011;11780;13.904;100.620;2023-04-03T13:40:57;24.63;;;21.05;;
23222;SDS011;11780;13.904;100.620;2023-04-03T13:45:35;23.15;;;20.70;;
23222;SDS011;11780;13.904;100.620;2023-04-03T13:48:17;24.90;;;20.88;;
23222;SDS011;11780;13.904;100.620;2023-04-03T13:51:01;28.15;;;20.83;;
23222;SDS011;11780;13.904;100.620;2023-04-03T13:56:27;23.20;;;20.17;;
23222;SDS011;11780;13.904;100.620;2023-04-03T13:59:03;24.77;;;20.67;;
23222;SDS011;11780;13.904;100.620;2023-04-03T14:01:44;24.88;;;21.33;;
23222;SDS011;11780;13.904;100.620;2023-04-03T14:06:57;24.10;;;21.20;;
23222;SDS011;11780;13.904;100.620;2023-04-03T14:09:27;26.63;;;22.70;;
23222;SDS011;11780;13.904;100.620;2023-04-03T14:12:00;29.35;;;22.15;;
23222;SDS011;11780;13.904;100.620;2023-04-03T14:14:44;24.88;;;22.10;;
23222;SDS011;11780;13.904;100.620;2023-04-03T14:17:18;27.15;;;22.55;;
23222;SDS011;11780;13.904;100.620;2023-04-03T14:19:52;25.35;;;22.75;;
23222;SDS011;11780;13.904;100.620;2023-04-03T14:22:25;25.65;;;22.38;;
23222;SDS011;11780;13.904;100.620;2023-04-03T14:24:58;25.40;;;22.77;;
23222;SDS011;11780;13.904;100.620;2023-04-03T14:27:38;26.77;;;22.05;;
23222;SDS011;11780;13.904;100.620;2023-04-03T14:30:16;27.60;;;23.08;;
23222;SDS011;11780;13.904;100.620;2023-04-03T14:32:51;29.40;;;23.42;;
23222;SDS011;11780;13.904;100.620;2023-04-03T14:35:23;28.35;;;25.38;;
23222;SDS011;11780;13.904;100.620;2023-04-03T14:37:54;30.65;;;26.10;;
23222;SDS011;11780;13.904;100.620;2023-04-03T14:40:25;26.92;;;23.58;;
23222;SDS011;11780;13.904;100.620;2023-04-03T14:42:57;27.15;;;24.45;;
23222;SDS011;11780;13.904;100.620;2023-04-03T14:45:27;30.43;;;26.77;;
23222;SDS011;11780;13.904;100.620;2023-04-03T14:47:58;29.43;;;26.43;;
23222;SDS011;11780;13.904;100.620;2023-04-03T14:50:29;29.58;;;26.40;;
23222;SDS011;11780;13.904;100.620;2023-04-03T14:52:59;30.37;;;27.17;;
23222;SDS011;11780;13.904;100.620;2023-04-03T14:55:29;29.55;;;26.60;;
23222;SDS011;11780;13.904;100.620;2023-04-03T14:58:01;31.67;;;28.55;;
23222;SDS011;11780;13.904;100.620;2023-04-03T15:00:31;32.47;;;27.50;;
23222;SDS011;11780;13.904;100.620;2023-04-03T15:03:02;28.73;;;25.70;;
23222;SDS011;11780;13.904;100.620;2023-04-03T15:08:08;28.05;;;24.00;;
23222;SDS011;11780;13.904;100.620;2023-04-03T15:10:51;24.88;;;22.27;;
23222;SDS011;11780;13.904;100.620;2023-04-03T15:13:22;26.20;;;23.60;;
23222;SDS011;11780;13.904;100.620;2023-04-03T15:15:53;29.27;;;22.98;;
23222;SDS011;11780;13.904;100.620;2023-04-03T15:18:25;26.55;;;23.67;;
23222;SDS011;11780;13.904;100.620;2023-04-03T15:20:57;26.13;;;23.42;;
23222;SDS011;11780;13.904;100.620;2023-04-03T15:23:27;30.33;;;24.37;;
23222;SDS011;11780;13.904;100.620;2023-04-03T15:28:35;29.17;;;25.48;;
23222;SDS011;11780;13.904;100.620;2023-04-03T15:31:08;28.77;;;25.02;;
23222;SDS011;11780;13.904;100.620;2023-04-03T15:33:39;27.50;;;24.60;;
23222;SDS011;11780;13.904;100.620;2023-04-03T15:36:09;30.00;;;26.58;;
23222;SDS011;11780;13.904;100.620;2023-04-03T15:38:59;27.70;;;24.67;;
23222;SDS011;11780;13.904;100.620;2023-04-03T15:41:30;26.90;;;24.13;;
23222;SDS011;11780;13.904;100.620;2023-04-03T15:44:00;29.60;;;26.65;;
23222;SDS011;11780;13.904;100.620;2023-04-03T15:46:30;30.17;;;26.50;;
23222;SDS011;11780;13.904;100.620;2023-04-03T15:49:02;29.05;;;25.88;;
23222;SDS011;11780;13.904;100.620;2023-04-03T15:51:32;28.42;;;25.75;;
23222;SDS011;11780;13.904;100.620;2023-04-03T15:54:03;28.00;;;25.35;;
23222;SDS011;11780;13.904;100.620;2023-04-03T15:56:34;28.50;;;25.48;;
23222;SDS011;11780;13.904;100.620;2023-04-03T15:59:04;31.13;;;27.97;;
23222;SDS011;11780;13.904;100.620;2023-04-03T16:01:35;26.05;;;23.27;;
23222;SDS011;11780;13.904;100.620;2023-04-03T16:04:07;31.60;;;28.60;;
23222;SDS011;11780;13.904;100.620;2023-04-03T16:06:39;29.73;;;26.83;;
23222;SDS011;11780;13.904;100.620;2023-04-03T16:09:10;32.65;;;29.27;;
23222;SDS011;11780;13.904;100.620;2023-04-03T16:11:41;33.47;;;30.00;;
23222;SDS011;11780;13.904;100.620;2023-04-03T16:14:12;33.13;;;29.52;;
23222;SDS011;11780;13.904;100.620;2023-04-03T16:16:43;33.33;;;29.80;;
23222;SDS011;11780;13.904;100.620;2023-04-03T16:19:13;30.83;;;27.77;;
23222;SDS011;11780;13.904;100.620;2023-04-03T16:21:44;31.97;;;28.77;;
23222;SDS011;11780;13.904;100.620;2023-04-03T16:24:15;32.65;;;29.50;;
23222;SDS011;11780;13.904;100.620;2023-04-03T16:26:45;32.63;;;27.30;;
23222;SDS011;11780;13.904;100.620;2023-04-03T16:29:15;32.17;;;29.13;;
23222;SDS011;11780;13.904;100.620;2023-04-03T16:31:46;31.75;;;28.23;;
23222;SDS011;11780;13.904;100.620;2023-04-03T16:34:16;32.55;;;29.40;;
23222;SDS011;11780;13.904;100.620;2023-04-03T16:36:47;33.50;;;30.20;;
23222;SDS011;11780;13.904;100.620;2023-04-03T16:39:18;32.17;;;28.83;;